KLCK/LCK METAR and TAF weather

Enter ICAO airport designator
Station Type Date Time Source
KLCK METAR 2020/07/11 01:55 UTC NOAA

KLCK 110155Z AUTO 28012G17KT 10SM BKN034 BKN043 OVC070 25/18 A2980 RMK AO2 T02450184


Station Type Date Time Source
KLCK Decoded METAR 2020/07/11 01:55 UTC NOAA

Rickenbacker Air National Guard Base, OH, United States (KLCK) 39-49N 082-56W
Jul 10, 2020 - 09:55 PM EDT / 2020.07.11 0155 UTC
Wind: from the W (280 degrees) at 14 MPH (12 KT) gusting to 20 MPH (17 KT):0
Visibility: 10 mile(s):0
Sky conditions: overcast
Temperature: 76.1 F (24.5 C)
Dew Point: 65.1 F (18.4 C)
Relative Humidity: 68%
Pressure (altimeter): 29.8 in. Hg (1009 hPa)
ob: KLCK 110155Z AUTO 28012G17KT 10SM BKN034 BKN043 OVC070 25/18 A2980 RMK AO2 T02450184
cycle: 2

Station Type Date Time Source
KLCK TAF 2020/07/11 02:57 UTC NOAA

TAF KLCK 110150Z 1102/1124 28012KT P6SM SCT035 BKN040 OVC080
FM110600 29007KT P6SM BKN040
FM111400 28011KT P6SM SCT050

Example: see airport list